sensor_id;sensor_type;location;lat;lon;timestamp;temperature;humidity
74458;SHT31;62896;51.032;3.712;2023-08-30T00:01:52;14.5;79
74458;SHT31;62896;51.032;3.712;2023-08-30T00:05:12;14.3;80
74458;SHT31;62896;51.032;3.712;2023-08-30T00:08:32;14.3;80
74458;SHT31;62896;51.032;3.712;2023-08-30T00:11:52;14.3;80
74458;SHT31;62896;51.032;3.712;2023-08-30T00:15:12;14.2;80
74458;SHT31;62896;51.032;3.712;2023-08-30T00:18:32;14.2;80
74458;SHT31;62896;51.032;3.712;2023-08-30T00:21:52;14.2;80
74458;SHT31;62896;51.032;3.712;2023-08-30T00:25:12;14.1;81
74458;SHT31;62896;51.032;3.712;2023-08-30T00:28:32;14.1;81
74458;SHT31;62896;51.032;3.712;2023-08-30T00:31:52;14.1;81
74458;SHT31;62896;51.032;3.712;2023-08-30T00:35:12;14;82
74458;SHT31;62896;51.032;3.712;2023-08-30T00:38:32;14;82
74458;SHT31;62896;51.032;3.712;2023-08-30T00:41:52;14;82
74458;SHT31;62896;51.032;3.712;2023-08-30T00:45:12;13.9;82
74458;SHT31;62896;51.032;3.712;2023-08-30T00:48:32;13.9;82
74458;SHT31;62896;51.032;3.712;2023-08-30T00:51:52;13.9;82
74458;SHT31;62896;51.032;3.712;2023-08-30T00:55:12;13.8;83
74458;SHT31;62896;51.032;3.712;2023-08-30T00:58:32;13.8;83
74458;SHT31;62896;51.032;3.712;2023-08-30T01:01:52;13.8;83
74458;SHT31;62896;51.032;3.712;2023-08-30T01:05:12;13.8;83
74458;SHT31;62896;51.032;3.712;2023-08-30T01:08:32;13.8;83
74458;SHT31;62896;51.032;3.712;2023-08-30T01:11:54;13.8;83
74458;SHT31;62896;51.032;3.712;2023-08-30T01:15:13;13.7;84
74458;SHT31;62896;51.032;3.712;2023-08-30T01:18:32;13.7;84
74458;SHT31;62896;51.032;3.712;2023-08-30T01:21:53;13.7;84
74458;SHT31;62896;51.032;3.712;2023-08-30T01:25:14;13.8;84
74458;SHT31;62896;51.032;3.712;2023-08-30T01:28:32;13.8;84
74458;SHT31;62896;51.032;3.712;2023-08-30T01:31:52;13.8;84
74458;SHT31;62896;51.032;3.712;2023-08-30T01:35:12;14;84
74458;SHT31;62896;51.032;3.712;2023-08-30T01:38:32;14;84
74458;SHT31;62896;51.032;3.712;2023-08-30T01:41:52;14;84
74458;SHT31;62896;51.032;3.712;2023-08-30T01:45:12;14.1;83
74458;SHT31;62896;51.032;3.712;2023-08-30T01:48:32;14.1;83
74458;SHT31;62896;51.032;3.712;2023-08-30T01:51:52;14.1;83
74458;SHT31;62896;51.032;3.712;2023-08-30T01:55:12;14;84
74458;SHT31;62896;51.032;3.712;2023-08-30T01:58:32;14;84
74458;SHT31;62896;51.032;3.712;2023-08-30T02:01:52;14;84
74458;SHT31;62896;51.032;3.712;2023-08-30T02:05:12;14;84
74458;SHT31;62896;51.032;3.712;2023-08-30T02:08:34;14;84
74458;SHT31;62896;51.032;3.712;2023-08-30T02:11:52;14;84
74458;SHT31;62896;51.032;3.712;2023-08-30T02:15:12;14.1;84
74458;SHT31;62896;51.032;3.712;2023-08-30T02:18:32;14.1;84
74458;SHT31;62896;51.032;3.712;2023-08-30T02:21:52;14.1;84
74458;SHT31;62896;51.032;3.712;2023-08-30T02:25:12;14.2;84
74458;SHT31;62896;51.032;3.712;2023-08-30T02:28:32;14.2;84
74458;SHT31;62896;51.032;3.712;2023-08-30T02:31:52;14.2;84
74458;SHT31;62896;51.032;3.712;2023-08-30T02:35:12;14.1;86
74458;SHT31;62896;51.032;3.712;2023-08-30T02:38:32;14.1;86
74458;SHT31;62896;51.032;3.712;2023-08-30T02:41:52;14.1;86
74458;SHT31;62896;51.032;3.712;2023-08-30T02:45:12;13.9;90
74458;SHT31;62896;51.032;3.712;2023-08-30T02:48:32;13.9;90
74458;SHT31;62896;51.032;3.712;2023-08-30T02:51:52;13.9;90
74458;SHT31;62896;51.032;3.712;2023-08-30T02:55:12;13.9;92
74458;SHT31;62896;51.032;3.712;2023-08-30T02:58:32;13.9;92
74458;SHT31;62896;51.032;3.712;2023-08-30T03:01:52;13.9;92
74458;SHT31;62896;51.032;3.712;2023-08-30T03:05:12;14;93
74458;SHT31;62896;51.032;3.712;2023-08-30T03:08:32;14;93
74458;SHT31;62896;51.032;3.712;2023-08-30T03:11:52;14;93
74458;SHT31;62896;51.032;3.712;2023-08-30T03:15:12;14.1;93
74458;SHT31;62896;51.032;3.712;2023-08-30T03:18:32;14.1;93
74458;SHT31;62896;51.032;3.712;2023-08-30T03:21:52;14.1;93
74458;SHT31;62896;51.032;3.712;2023-08-30T03:25:12;14.1;93
74458;SHT31;62896;51.032;3.712;2023-08-30T03:28:32;14.1;93
74458;SHT31;62896;51.032;3.712;2023-08-30T03:31:52;14.1;93
74458;SHT31;62896;51.032;3.712;2023-08-30T03:35:12;14.1;93
74458;SHT31;62896;51.032;3.712;2023-08-30T03:38:32;14.1;93
74458;SHT31;62896;51.032;3.712;2023-08-30T03:41:52;14.1;93
74458;SHT31;62896;51.032;3.712;2023-08-30T03:45:12;14.2;94
74458;SHT31;62896;51.032;3.712;2023-08-30T03:48:32;14.2;94
74458;SHT31;62896;51.032;3.712;2023-08-30T03:51:52;14.2;94
74458;SHT31;62896;51.032;3.712;2023-08-30T03:55:12;14.1;95
74458;SHT31;62896;51.032;3.712;2023-08-30T03:58:32;14.1;95
74458;SHT31;62896;51.032;3.712;2023-08-30T04:01:52;14.1;95
74458;SHT31;62896;51.032;3.712;2023-08-30T04:05:12;14.2;95
74458;SHT31;62896;51.032;3.712;2023-08-30T04:08:32;14.2;95
74458;SHT31;62896;51.032;3.712;2023-08-30T04:11:52;14.2;95
74458;SHT31;62896;51.032;3.712;2023-08-30T04:15:12;14.2;96
74458;SHT31;62896;51.032;3.712;2023-08-30T04:18:32;14.2;96
74458;SHT31;62896;51.032;3.712;2023-08-30T04:21:52;14.2;96
74458;SHT31;62896;51.032;3.712;2023-08-30T04:25:12;14.1;96
74458;SHT31;62896;51.032;3.712;2023-08-30T04:28:32;14.1;96
74458;SHT31;62896;51.032;3.712;2023-08-30T04:31:52;14.1;96
74458;SHT31;62896;51.032;3.712;2023-08-30T04:35:12;14.1;96
74458;SHT31;62896;51.032;3.712;2023-08-30T04:38:32;14.1;96
74458;SHT31;62896;51.032;3.712;2023-08-30T04:41:52;14.1;96
74458;SHT31;62896;51.032;3.712;2023-08-30T04:45:12;14.2;96
74458;SHT31;62896;51.032;3.712;2023-08-30T04:48:32;14.2;96
74458;SHT31;62896;51.032;3.712;2023-08-30T04:51:52;14.2;96
74458;SHT31;62896;51.032;3.712;2023-08-30T04:55:12;14.2;96
74458;SHT31;62896;51.032;3.712;2023-08-30T04:58:32;14.2;96
74458;SHT31;62896;51.032;3.712;2023-08-30T05:01:52;14.2;96
74458;SHT31;62896;51.032;3.712;2023-08-30T05:05:12;14.2;96
74458;SHT31;62896;51.032;3.712;2023-08-30T05:08:32;14.2;96
74458;SHT31;62896;51.032;3.712;2023-08-30T05:11:52;14.2;96
74458;SHT31;62896;51.032;3.712;2023-08-30T05:15:12;14.2;96
74458;SHT31;62896;51.032;3.712;2023-08-30T05:18:32;14.2;96
74458;SHT31;62896;51.032;3.712;2023-08-30T05:21:52;14.2;96
74458;SHT31;62896;51.032;3.712;2023-08-30T05:25:12;14.2;97
74458;SHT31;62896;51.032;3.712;2023-08-30T05:28:32;14.2;97
74458;SHT31;62896;51.032;3.712;2023-08-30T05:31:52;14.2;97
74458;SHT31;62896;51.032;3.712;2023-08-30T05:35:12;14.2;97
74458;SHT31;62896;51.032;3.712;2023-08-30T05:38:32;14.2;97
74458;SHT31;62896;51.032;3.712;2023-08-30T05:41:52;14.2;97
74458;SHT31;62896;51.032;3.712;2023-08-30T05:45:12;14.2;97
74458;SHT31;62896;51.032;3.712;2023-08-30T05:48:32;14.2;97
74458;SHT31;62896;51.032;3.712;2023-08-30T05:51:52;14.2;97
74458;SHT31;62896;51.032;3.712;2023-08-30T05:55:12;14.2;97
74458;SHT31;62896;51.032;3.712;2023-08-30T05:58:32;14.2;97
74458;SHT31;62896;51.032;3.712;2023-08-30T06:01:52;14.2;97
74458;SHT31;62896;51.032;3.712;2023-08-30T06:05:12;14.3;97
74458;SHT31;62896;51.032;3.712;2023-08-30T06:08:32;14.3;97
74458;SHT31;62896;51.032;3.712;2023-08-30T06:11:52;14.3;97
74458;SHT31;62896;51.032;3.712;2023-08-30T06:15:12;14.3;97
74458;SHT31;62896;51.032;3.712;2023-08-30T06:18:32;14.3;97
74458;SHT31;62896;51.032;3.712;2023-08-30T06:21:52;14.3;97
74458;SHT31;62896;51.032;3.712;2023-08-30T06:25:12;14.4;97
74458;SHT31;62896;51.032;3.712;2023-08-30T06:28:32;14.4;97
74458;SHT31;62896;51.032;3.712;2023-08-30T06:31:52;14.4;97
74458;SHT31;62896;51.032;3.712;2023-08-30T06:35:12;14.4;97
74458;SHT31;62896;51.032;3.712;2023-08-30T06:38:32;14.4;97
74458;SHT31;62896;51.032;3.712;2023-08-30T06:41:52;14.4;97
74458;SHT31;62896;51.032;3.712;2023-08-30T06:45:12;14.4;97
74458;SHT31;62896;51.032;3.712;2023-08-30T06:48:32;14.4;97
74458;SHT31;62896;51.032;3.712;2023-08-30T06:51:52;14.4;97
74458;SHT31;62896;51.032;3.712;2023-08-30T06:55:12;14.6;97
74458;SHT31;62896;51.032;3.712;2023-08-30T06:58:32;14.6;97
74458;SHT31;62896;51.032;3.712;2023-08-30T07:01:52;14.6;97
74458;SHT31;62896;51.032;3.712;2023-08-30T07:05:12;14.6;97
74458;SHT31;62896;51.032;3.712;2023-08-30T07:08:32;14.6;97
74458;SHT31;62896;51.032;3.712;2023-08-30T07:11:52;14.6;97
74458;SHT31;62896;51.032;3.712;2023-08-30T07:15:13;14.7;97
74458;SHT31;62896;51.032;3.712;2023-08-30T07:18:32;14.7;97
74458;SHT31;62896;51.032;3.712;2023-08-30T07:21:52;14.7;97
74458;SHT31;62896;51.032;3.712;2023-08-30T07:25:12;15;97
74458;SHT31;62896;51.032;3.712;2023-08-30T07:28:32;15;97
74458;SHT31;62896;51.032;3.712;2023-08-30T07:31:52;15;97
74458;SHT31;62896;51.032;3.712;2023-08-30T07:35:12;15.4;96
74458;SHT31;62896;51.032;3.712;2023-08-30T07:38:32;15.4;96
74458;SHT31;62896;51.032;3.712;2023-08-30T07:41:52;15.4;96
74458;SHT31;62896;51.032;3.712;2023-08-30T07:45:12;15.8;95
74458;SHT31;62896;51.032;3.712;2023-08-30T07:48:32;15.8;95
74458;SHT31;62896;51.032;3.712;2023-08-30T07:51:52;15.8;95
74458;SHT31;62896;51.032;3.712;2023-08-30T07:55:13;15.9;95
74458;SHT31;62896;51.032;3.712;2023-08-30T07:58:32;15.9;95
74458;SHT31;62896;51.032;3.712;2023-08-30T08:01:52;15.9;95
74458;SHT31;62896;51.032;3.712;2023-08-30T08:05:12;16.1;94
74458;SHT31;62896;51.032;3.712;2023-08-30T08:08:32;16.1;94
74458;SHT31;62896;51.032;3.712;2023-08-30T08:11:52;16.1;94
74458;SHT31;62896;51.032;3.712;2023-08-30T08:15:12;16.5;93
74458;SHT31;62896;51.032;3.712;2023-08-30T08:18:32;16.5;93
74458;SHT31;62896;51.032;3.712;2023-08-30T08:21:52;16.5;93
74458;SHT31;62896;51.032;3.712;2023-08-30T08:25:12;16.6;92
74458;SHT31;62896;51.032;3.712;2023-08-30T08:28:32;16.6;92
74458;SHT31;62896;51.032;3.712;2023-08-30T08:31:52;16.6;92
74458;SHT31;62896;51.032;3.712;2023-08-30T08:35:12;16.6;92
74458;SHT31;62896;51.032;3.712;2023-08-30T08:38:32;16.6;92
74458;SHT31;62896;51.032;3.712;2023-08-30T08:41:52;16.6;92
74458;SHT31;62896;51.032;3.712;2023-08-30T08:45:12;16.8;92
74458;SHT31;62896;51.032;3.712;2023-08-30T08:48:33;16.8;92
74458;SHT31;62896;51.032;3.712;2023-08-30T08:51:52;16.8;92
74458;SHT31;62896;51.032;3.712;2023-08-30T08:55:12;17.2;88
74458;SHT31;62896;51.032;3.712;2023-08-30T08:58:32;17.2;88
74458;SHT31;62896;51.032;3.712;2023-08-30T09:01:52;17.2;88
74458;SHT31;62896;51.032;3.712;2023-08-30T09:05:12;17.5;83
74458;SHT31;62896;51.032;3.712;2023-08-30T09:08:32;17.5;83
74458;SHT31;62896;51.032;3.712;2023-08-30T09:11:52;17.5;83
74458;SHT31;62896;51.032;3.712;2023-08-30T09:15:12;18;82
74458;SHT31;62896;51.032;3.712;2023-08-30T09:18:32;18;82
74458;SHT31;62896;51.032;3.712;2023-08-30T09:21:52;18;82
74458;SHT31;62896;51.032;3.712;2023-08-30T09:25:23;18.5;77
74458;SHT31;62896;51.032;3.712;2023-08-30T09:28:41;18.5;77
74458;SHT31;62896;51.032;3.712;2023-08-30T09:31:52;18.5;77
74458;SHT31;62896;51.032;3.712;2023-08-30T09:35:12;18.3;74
74458;SHT31;62896;51.032;3.712;2023-08-30T09:38:32;18.3;74
74458;SHT31;62896;51.032;3.712;2023-08-30T09:41:53;18.3;74
74458;SHT31;62896;51.032;3.712;2023-08-30T09:45:19;18.4;74
74458;SHT31;62896;51.032;3.712;2023-08-30T09:48:32;18.4;74
74458;SHT31;62896;51.032;3.712;2023-08-30T09:51:53;18.4;74
74458;SHT31;62896;51.032;3.712;2023-08-30T09:55:12;18.7;71
74458;SHT31;62896;51.032;3.712;2023-08-30T09:58:32;18.7;71
74458;SHT31;62896;51.032;3.712;2023-08-30T10:01:52;18.7;71
74458;SHT31;62896;51.032;3.712;2023-08-30T10:05:12;18.9;69
74458;SHT31;62896;51.032;3.712;2023-08-30T10:08:33;18.9;69
74458;SHT31;62896;51.032;3.712;2023-08-30T10:11:52;18.9;69
74458;SHT31;62896;51.032;3.712;2023-08-30T10:15:12;18.9;66
74458;SHT31;62896;51.032;3.712;2023-08-30T10:18:32;18.9;66
74458;SHT31;62896;51.032;3.712;2023-08-30T10:21:54;18.9;66
74458;SHT31;62896;51.032;3.712;2023-08-30T10:25:13;19.3;63
74458;SHT31;62896;51.032;3.712;2023-08-30T10:28:32;19.3;63
74458;SHT31;62896;51.032;3.712;2023-08-30T10:31:52;19.3;63
74458;SHT31;62896;51.032;3.712;2023-08-30T10:35:12;18.9;63
74458;SHT31;62896;51.032;3.712;2023-08-30T10:38:32;18.9;63
74458;SHT31;62896;51.032;3.712;2023-08-30T10:41:54;18.9;63
74458;SHT31;62896;51.032;3.712;2023-08-30T10:45:12;19.2;61
74458;SHT31;62896;51.032;3.712;2023-08-30T10:48:34;19.2;61
74458;SHT31;62896;51.032;3.712;2023-08-30T10:51:54;19.2;61
74458;SHT31;62896;51.032;3.712;2023-08-30T10:55:13;19.6;58
74458;SHT31;62896;51.032;3.712;2023-08-30T10:58:38;19.6;58
74458;SHT31;62896;51.032;3.712;2023-08-30T11:01:52;19.6;58
74458;SHT31;62896;51.032;3.712;2023-08-30T11:05:12;20.3;57
74458;SHT31;62896;51.032;3.712;2023-08-30T11:08:32;20.3;57
74458;SHT31;62896;51.032;3.712;2023-08-30T11:11:52;20.3;57
74458;SHT31;62896;51.032;3.712;2023-08-30T11:15:13;20.5;57
74458;SHT31;62896;51.032;3.712;2023-08-30T11:18:36;20.5;57
74458;SHT31;62896;51.032;3.712;2023-08-30T11:21:52;20.5;57
74458;SHT31;62896;51.032;3.712;2023-08-30T11:25:13;20.4;57
74458;SHT31;62896;51.032;3.712;2023-08-30T11:28:32;20.4;57
74458;SHT31;62896;51.032;3.712;2023-08-30T11:31:52;20.4;57
74458;SHT31;62896;51.032;3.712;2023-08-30T11:35:12;20.3;58
74458;SHT31;62896;51.032;3.712;2023-08-30T11:38:32;20.3;58
74458;SHT31;62896;51.032;3.712;2023-08-30T11:41:52;20.3;58
74458;SHT31;62896;51.032;3.712;2023-08-30T11:45:13;20.3;59
74458;SHT31;62896;51.032;3.712;2023-08-30T11:48:32;20.3;59
74458;SHT31;62896;51.032;3.712;2023-08-30T11:51:52;20.3;59
74458;SHT31;62896;51.032;3.712;2023-08-30T11:55:12;20.6;59
74458;SHT31;62896;51.032;3.712;2023-08-30T11:58:32;20.6;59
74458;SHT31;62896;51.032;3.712;2023-08-30T12:01:52;20.6;59
74458;SHT31;62896;51.032;3.712;2023-08-30T12:05:13;21.1;58
74458;SHT31;62896;51.032;3.712;2023-08-30T12:08:32;21.1;58
74458;SHT31;62896;51.032;3.712;2023-08-30T12:11:52;21.1;58
74458;SHT31;62896;51.032;3.712;2023-08-30T12:15:13;21.2;55
74458;SHT31;62896;51.032;3.712;2023-08-30T12:18:32;21.2;55
74458;SHT31;62896;51.032;3.712;2023-08-30T12:21:52;21.2;55
74458;SHT31;62896;51.032;3.712;2023-08-30T12:25:16;20.2;59
74458;SHT31;62896;51.032;3.712;2023-08-30T12:28:33;20.2;59
74458;SHT31;62896;51.032;3.712;2023-08-30T12:31:52;20.2;59
74458;SHT31;62896;51.032;3.712;2023-08-30T12:35:12;20.3;59
74458;SHT31;62896;51.032;3.712;2023-08-30T12:38:32;20.3;59
74458;SHT31;62896;51.032;3.712;2023-08-30T12:41:52;20.3;59
74458;SHT31;62896;51.032;3.712;2023-08-30T12:45:12;20.7;60
74458;SHT31;62896;51.032;3.712;2023-08-30T12:48:32;20.7;60
74458;SHT31;62896;51.032;3.712;2023-08-30T12:51:52;20.7;60
74458;SHT31;62896;51.032;3.712;2023-08-30T12:55:12;19.8;62
74458;SHT31;62896;51.032;3.712;2023-08-30T12:58:32;19.8;62
74458;SHT31;62896;51.032;3.712;2023-08-30T13:01:52;19.8;62
74458;SHT31;62896;51.032;3.712;2023-08-30T13:05:12;19.6;63
74458;SHT31;62896;51.032;3.712;2023-08-30T13:08:32;19.6;63
74458;SHT31;62896;51.032;3.712;2023-08-30T13:11:52;19.6;63
74458;SHT31;62896;51.032;3.712;2023-08-30T13:15:13;20.9;57
74458;SHT31;62896;51.032;3.712;2023-08-30T13:18:32;20.9;57
74458;SHT31;62896;51.032;3.712;2023-08-30T13:21:52;20.9;57
74458;SHT31;62896;51.032;3.712;2023-08-30T13:25:12;21.7;55
74458;SHT31;62896;51.032;3.712;2023-08-30T13:28:32;21.7;55
74458;SHT31;62896;51.032;3.712;2023-08-30T13:31:52;21.7;55
74458;SHT31;62896;51.032;3.712;2023-08-30T13:35:12;22.1;54
74458;SHT31;62896;51.032;3.712;2023-08-30T13:38:32;22.1;54
74458;SHT31;62896;51.032;3.712;2023-08-30T13:41:52;22.1;54
74458;SHT31;62896;51.032;3.712;2023-08-30T13:45:12;21.8;54
74458;SHT31;62896;51.032;3.712;2023-08-30T13:48:32;21.8;54
74458;SHT31;62896;51.032;3.712;2023-08-30T13:51:52;21.8;54
74458;SHT31;62896;51.032;3.712;2023-08-30T13:55:12;21.5;55
74458;SHT31;62896;51.032;3.712;2023-08-30T13:58:32;21.5;55
74458;SHT31;62896;51.032;3.712;2023-08-30T14:01:52;21.5;55
74458;SHT31;62896;51.032;3.712;2023-08-30T14:05:12;22.2;51
74458;SHT31;62896;51.032;3.712;2023-08-30T14:08:32;22.2;51
74458;SHT31;62896;51.032;3.712;2023-08-30T14:11:52;22.2;51
74458;SHT31;62896;51.032;3.712;2023-08-30T14:15:12;21.2;56
74458;SHT31;62896;51.032;3.712;2023-08-30T14:18:32;21.2;56
74458;SHT31;62896;51.032;3.712;2023-08-30T14:21:52;21.2;56
74458;SHT31;62896;51.032;3.712;2023-08-30T14:25:12;21.1;56
74458;SHT31;62896;51.032;3.712;2023-08-30T14:28:32;21.1;56
74458;SHT31;62896;51.032;3.712;2023-08-30T14:31:52;21.1;56
74458;SHT31;62896;51.032;3.712;2023-08-30T14:35:12;21.3;54
74458;SHT31;62896;51.032;3.712;2023-08-30T14:38:32;21.3;54
74458;SHT31;62896;51.032;3.712;2023-08-30T14:41:52;21.3;54
74458;SHT31;62896;51.032;3.712;2023-08-30T14:45:12;22.3;51
74458;SHT31;62896;51.032;3.712;2023-08-30T14:48:32;22.3;51
74458;SHT31;62896;51.032;3.712;2023-08-30T14:51:52;22.3;51
74458;SHT31;62896;51.032;3.712;2023-08-30T14:55:12;21.7;53
74458;SHT31;62896;51.032;3.712;2023-08-30T14:58:33;21.7;53
74458;SHT31;62896;51.032;3.712;2023-08-30T15:01:52;21.7;53
74458;SHT31;62896;51.032;3.712;2023-08-30T15:05:12;22.6;52
74458;SHT31;62896;51.032;3.712;2023-08-30T15:08:32;22.6;52
74458;SHT31;62896;51.032;3.712;2023-08-30T15:11:52;22.6;52
74458;SHT31;62896;51.032;3.712;2023-08-30T15:15:13;21.4;55
74458;SHT31;62896;51.032;3.712;2023-08-30T15:18:32;21.4;55
74458;SHT31;62896;51.032;3.712;2023-08-30T15:21:52;21.4;55
74458;SHT31;62896;51.032;3.712;2023-08-30T15:25:12;20.4;58
74458;SHT31;62896;51.032;3.712;2023-08-30T15:28:32;20.4;58
74458;SHT31;62896;51.032;3.712;2023-08-30T15:31:52;20.4;58
74458;SHT31;62896;51.032;3.712;2023-08-30T15:35:12;20;58
74458;SHT31;62896;51.032;3.712;2023-08-30T15:38:33;20;58
74458;SHT31;62896;51.032;3.712;2023-08-30T15:41:52;20;58
74458;SHT31;62896;51.032;3.712;2023-08-30T15:45:12;19.8;59
74458;SHT31;62896;51.032;3.712;2023-08-30T15:48:32;19.8;59
74458;SHT31;62896;51.032;3.712;2023-08-30T15:51:52;19.8;59
74458;SHT31;62896;51.032;3.712;2023-08-30T15:55:12;19.6;60
74458;SHT31;62896;51.032;3.712;2023-08-30T15:58:32;19.6;60
74458;SHT31;62896;51.032;3.712;2023-08-30T16:01:52;19.6;60
74458;SHT31;62896;51.032;3.712;2023-08-30T16:05:13;19.3;60
74458;SHT31;62896;51.032;3.712;2023-08-30T16:08:32;19.3;60
74458;SHT31;62896;51.032;3.712;2023-08-30T16:11:52;19.3;60
74458;SHT31;62896;51.032;3.712;2023-08-30T16:15:12;19.1;61
74458;SHT31;62896;51.032;3.712;2023-08-30T16:18:32;19.1;61
74458;SHT31;62896;51.032;3.712;2023-08-30T16:21:52;19.1;61
74458;SHT31;62896;51.032;3.712;2023-08-30T16:25:12;19;62
74458;SHT31;62896;51.032;3.712;2023-08-30T16:28:33;19;62
74458;SHT31;62896;51.032;3.712;2023-08-30T16:31:53;19;62
74458;SHT31;62896;51.032;3.712;2023-08-30T16:35:12;19.3;63
74458;SHT31;62896;51.032;3.712;2023-08-30T16:38:32;19.3;63
74458;SHT31;62896;51.032;3.712;2023-08-30T16:41:52;19.3;63
74458;SHT31;62896;51.032;3.712;2023-08-30T16:45:13;19;63
74458;SHT31;62896;51.032;3.712;2023-08-30T16:48:32;19;63
74458;SHT31;62896;51.032;3.712;2023-08-30T16:51:53;19;63
74458;SHT31;62896;51.032;3.712;2023-08-30T16:55:13;18.8;63
74458;SHT31;62896;51.032;3.712;2023-08-30T16:58:32;18.8;63
74458;SHT31;62896;51.032;3.712;2023-08-30T17:01:53;18.8;63
74458;SHT31;62896;51.032;3.712;2023-08-30T17:05:13;18.7;64
74458;SHT31;62896;51.032;3.712;2023-08-30T17:08:32;18.7;64
74458;SHT31;62896;51.032;3.712;2023-08-30T17:11:53;18.7;64
74458;SHT31;62896;51.032;3.712;2023-08-30T17:15:13;18.6;65
74458;SHT31;62896;51.032;3.712;2023-08-30T17:18:33;18.6;65
74458;SHT31;62896;51.032;3.712;2023-08-30T17:21:53;18.6;65
74458;SHT31;62896;51.032;3.712;2023-08-30T17:25:13;18.5;66
74458;SHT31;62896;51.032;3.712;2023-08-30T17:28:33;18.5;66
74458;SHT31;62896;51.032;3.712;2023-08-30T17:31:53;18.5;66
74458;SHT31;62896;51.032;3.712;2023-08-30T17:35:13;18.4;66
74458;SHT31;62896;51.032;3.712;2023-08-30T17:38:33;18.4;66
74458;SHT31;62896;51.032;3.712;2023-08-30T17:41:53;18.4;66
74458;SHT31;62896;51.032;3.712;2023-08-30T17:45:13;18.2;67
74458;SHT31;62896;51.032;3.712;2023-08-30T17:48:33;18.2;67
74458;SHT31;62896;51.032;3.712;2023-08-30T17:51:53;18.2;67
74458;SHT31;62896;51.032;3.712;2023-08-30T17:55:13;18;69
74458;SHT31;62896;51.032;3.712;2023-08-30T17:58:33;18;69
74458;SHT31;62896;51.032;3.712;2023-08-30T18:01:53;18;69
74458;SHT31;62896;51.032;3.712;2023-08-30T18:05:13;17.7;70
74458;SHT31;62896;51.032;3.712;2023-08-30T18:08:33;17.7;70
74458;SHT31;62896;51.032;3.712;2023-08-30T18:11:53;17.7;70
74458;SHT31;62896;51.032;3.712;2023-08-30T18:15:13;17.7;71
74458;SHT31;62896;51.032;3.712;2023-08-30T18:18:33;17.7;71
74458;SHT31;62896;51.032;3.712;2023-08-30T18:21:53;17.7;71
74458;SHT31;62896;51.032;3.712;2023-08-30T18:25:13;17.5;72
74458;SHT31;62896;51.032;3.712;2023-08-30T18:28:33;17.5;72
74458;SHT31;62896;51.032;3.712;2023-08-30T18:31:53;17.5;72
74458;SHT31;62896;51.032;3.712;2023-08-30T18:35:13;17.3;76
74458;SHT31;62896;51.032;3.712;2023-08-30T18:38:33;17.3;76
74458;SHT31;62896;51.032;3.712;2023-08-30T18:41:53;17.3;76
74458;SHT31;62896;51.032;3.712;2023-08-30T18:45:13;15.8;86
74458;SHT31;62896;51.032;3.712;2023-08-30T18:48:33;15.8;86
74458;SHT31;62896;51.032;3.712;2023-08-30T18:51:53;15.8;86
74458;SHT31;62896;51.032;3.712;2023-08-30T18:55:13;14.4;90
74458;SHT31;62896;51.032;3.712;2023-08-30T18:58:33;14.4;90
74458;SHT31;62896;51.032;3.712;2023-08-30T19:01:53;14.4;90
74458;SHT31;62896;51.032;3.712;2023-08-30T19:05:13;13.7;95
74458;SHT31;62896;51.032;3.712;2023-08-30T19:08:33;13.7;95
74458;SHT31;62896;51.032;3.712;2023-08-30T19:11:53;13.7;95
74458;SHT31;62896;51.032;3.712;2023-08-30T19:15:13;13.5;96
74458;SHT31;62896;51.032;3.712;2023-08-30T19:18:33;13.5;96
74458;SHT31;62896;51.032;3.712;2023-08-30T19:21:53;13.5;96
74458;SHT31;62896;51.032;3.712;2023-08-30T19:25:13;13.3;97
74458;SHT31;62896;51.032;3.712;2023-08-30T19:28:33;13.3;97
74458;SHT31;62896;51.032;3.712;2023-08-30T19:31:53;13.3;97
74458;SHT31;62896;51.032;3.712;2023-08-30T19:35:13;13.4;97
74458;SHT31;62896;51.032;3.712;2023-08-30T19:38:33;13.4;97
74458;SHT31;62896;51.032;3.712;2023-08-30T19:41:53;13.4;97
74458;SHT31;62896;51.032;3.712;2023-08-30T19:45:13;13.1;96
74458;SHT31;62896;51.032;3.712;2023-08-30T19:48:33;13.1;96
74458;SHT31;62896;51.032;3.712;2023-08-30T19:51:53;13.1;96
74458;SHT31;62896;51.032;3.712;2023-08-30T19:55:13;13;97
74458;SHT31;62896;51.032;3.712;2023-08-30T19:58:33;13;97
74458;SHT31;62896;51.032;3.712;2023-08-30T20:01:53;13;97
74458;SHT31;62896;51.032;3.712;2023-08-30T20:05:13;12.9;98
74458;SHT31;62896;51.032;3.712;2023-08-30T20:08:33;12.9;98
74458;SHT31;62896;51.032;3.712;2023-08-30T20:11:53;12.9;98
74458;SHT31;62896;51.032;3.712;2023-08-30T20:15:13;13.1;98
74458;SHT31;62896;51.032;3.712;2023-08-30T20:18:33;13.1;98
74458;SHT31;62896;51.032;3.712;2023-08-30T20:21:53;13.1;98
74458;SHT31;62896;51.032;3.712;2023-08-30T20:25:13;13.1;98
74458;SHT31;62896;51.032;3.712;2023-08-30T20:28:33;13.1;98
74458;SHT31;62896;51.032;3.712;2023-08-30T20:31:53;13.1;98
74458;SHT31;62896;51.032;3.712;2023-08-30T20:35:13;13.1;98
74458;SHT31;62896;51.032;3.712;2023-08-30T20:38:33;13.1;98
74458;SHT31;62896;51.032;3.712;2023-08-30T20:41:53;13.1;98
74458;SHT31;62896;51.032;3.712;2023-08-30T20:45:13;13.1;98
74458;SHT31;62896;51.032;3.712;2023-08-30T20:48:33;13.1;98
74458;SHT31;62896;51.032;3.712;2023-08-30T20:51:53;13.1;98
74458;SHT31;62896;51.032;3.712;2023-08-30T20:55:13;13.1;98
74458;SHT31;62896;51.032;3.712;2023-08-30T20:58:33;13.1;98
74458;SHT31;62896;51.032;3.712;2023-08-30T21:01:53;13.1;98
74458;SHT31;62896;51.032;3.712;2023-08-30T21:05:13;13.1;98
74458;SHT31;62896;51.032;3.712;2023-08-30T21:08:34;13.1;98
74458;SHT31;62896;51.032;3.712;2023-08-30T21:11:53;13.1;98
74458;SHT31;62896;51.032;3.712;2023-08-30T21:15:13;13.1;98
74458;SHT31;62896;51.032;3.712;2023-08-30T21:18:33;13.1;98
74458;SHT31;62896;51.032;3.712;2023-08-30T21:21:53;13.1;98
74458;SHT31;62896;51.032;3.712;2023-08-30T21:25:13;13;97
74458;SHT31;62896;51.032;3.712;2023-08-30T21:28:33;13;97
74458;SHT31;62896;51.032;3.712;2023-08-30T21:31:53;13;97
74458;SHT31;62896;51.032;3.712;2023-08-30T21:35:13;12.9;96
74458;SHT31;62896;51.032;3.712;2023-08-30T21:38:33;12.9;96
74458;SHT31;62896;51.032;3.712;2023-08-30T21:41:53;12.9;96
74458;SHT31;62896;51.032;3.712;2023-08-30T21:45:13;12.8;96
74458;SHT31;62896;51.032;3.712;2023-08-30T21:48:33;12.8;96
74458;SHT31;62896;51.032;3.712;2023-08-30T21:51:53;12.8;96
74458;SHT31;62896;51.032;3.712;2023-08-30T21:55:13;12.7;96
74458;SHT31;62896;51.032;3.712;2023-08-30T21:58:33;12.7;96
74458;SHT31;62896;51.032;3.712;2023-08-30T22:01:53;12.7;96
74458;SHT31;62896;51.032;3.712;2023-08-30T22:05:13;12.7;97
74458;SHT31;62896;51.032;3.712;2023-08-30T22:08:33;12.7;97
74458;SHT31;62896;51.032;3.712;2023-08-30T22:11:53;12.7;97
74458;SHT31;62896;51.032;3.712;2023-08-30T22:15:13;12.7;97
74458;SHT31;62896;51.032;3.712;2023-08-30T22:18:33;12.7;97
74458;SHT31;62896;51.032;3.712;2023-08-30T22:21:53;12.7;97
74458;SHT31;62896;51.032;3.712;2023-08-30T22:25:13;12.7;97
74458;SHT31;62896;51.032;3.712;2023-08-30T22:28:33;12.7;97
74458;SHT31;62896;51.032;3.712;2023-08-30T22:31:53;12.7;97